METAR AND TAF INFORMATION
METAR FOR SBSP
ADDS - METARS form results

(0614 UTC 07 June 2020)
Data provider http://aviationweather.gov/metar/data/
 
METAR text: SBSP 070601Z AUTO 36005KT 6000 SCT011 BKN014 19/17 Q1021
Conditions at: SBSP (SAO PAULO/CONGON, BR) observed 0601 UTC 07 June 2020
Temperature: 19.0°C (66°F)
Dewpoint: 17.0°C (63°F) [RH = 88%]
Pressure (altimeter): 30.15 inches Hg (1021.0 mb)
Winds: from the N (360 degrees) at 6 MPH (5 knots; 2.6 m/s)
Visibility: 4 miles ( 6 km)
Ceiling: 1400 feet AGL
Clouds: scattered clouds at 1100 feet AGL
broken clouds at 1400 feet AGL
Weather: no significant weather observed at this time

METAR text: SBSP 070600Z AUTO 36005KT 6000 SCT011 BKN019 19/17 Q1021
Conditions at: SBSP (SAO PAULO/CONGON, BR) observed 0600 UTC 07 June 2020
Temperature: 19.0°C (66°F)
Dewpoint: 17.0°C (63°F) [RH = 88%]
Pressure (altimeter): 30.15 inches Hg (1021.0 mb)
Winds: from the N (360 degrees) at 6 MPH (5 knots; 2.6 m/s)
Visibility: 4 miles ( 6 km)
Ceiling: 1900 feet AGL
Clouds: scattered clouds at 1100 feet AGL
broken clouds at 1900 feet AGL
Weather: no significant weather observed at this time

METAR text: SBSP 070559Z AUTO 36005KT 6000 SCT011 BKN019 19/17 Q1021
Conditions at: SBSP (SAO PAULO/CONGON, BR) observed 0559 UTC 07 June 2020
Temperature: 19.0°C (66°F)
Dewpoint: 17.0°C (63°F) [RH = 88%]
Pressure (altimeter): 30.15 inches Hg (1021.0 mb)
Winds: from the N (360 degrees) at 6 MPH (5 knots; 2.6 m/s)
Visibility: 4 miles ( 6 km)
Ceiling: 1900 feet AGL
Clouds: scattered clouds at 1100 feet AGL
broken clouds at 1900 feet AGL
Weather: no significant weather observed at this time

METAR text: SBSP 070538Z AUTO 36005KT 6000 FEW007 BKN014 OVC024 19/17 Q1020
Conditions at: SBSP (SAO PAULO/CONGON, BR) observed 0538 UTC 07 June 2020
Temperature: 19.0°C (66°F)
Dewpoint: 17.0°C (63°F) [RH = 88%]
Pressure (altimeter): 30.12 inches Hg (1020.0 mb)
Winds: from the N (360 degrees) at 6 MPH (5 knots; 2.6 m/s)
Visibility: 4 miles ( 6 km)
Ceiling: 1400 feet AGL
Clouds: few clouds at 700 feet AGL
broken clouds at 1400 feet AGL
overcast cloud deck at 2400 feet AGL
Weather: no significant weather observed at this time

Forecast for: SBSP (SAO PAULO/CONGON, BR)
Text: TAF SBSP 070200Z 0706/0718 35011KT CAVOK TN17/0709Z TX21/0717Z
Forecast period: 0600 to 1000 UTC 07 June 2020
Forecast type: FROM: standard forecast or significant change
Winds: from the N (350 degrees) at 13 MPH (11 knots; 5.7 m/s)
Visibility: 6 or more miles 10+ km)
Ceiling: unknown
Clouds: missing
Weather: no significant weather forecast for this period
Text: PROB30 0706/0710 7000 RA BKN040
Forecast period: 0600 to 1000 UTC 07 June 2020
Forecast type: PROBABLE: 30 percent likelihood of the following during this time
Visibility: 4 miles (7 km)
Ceiling: 4000 feet AGL
Clouds: broken clouds at 4000 feet AGL
Weather: RA  (moderate rain)
Text: BECMG 0710/0712 32007KT BKN015
Forecast period: 1000 to 1500 UTC 07 June 2020
Forecast type: BECOMING: Conditions expected to become as follows by 1200 UTC 07 June 2020
Winds: from the NW (320 degrees) at 8 MPH (7 knots; 3.6 m/s)
Visibility: 6 or more miles 10+ km)
Ceiling: 1500 feet AGL
Clouds: broken clouds at 1500 feet AGL
Weather: no significant weather forecast for this period
Text: BECMG 0715/0717 28005KT SCT030 RMK PHM
Forecast period: 1500 to 1800 UTC 07 June 2020
Forecast type: BECOMING: Conditions expected to become as follows by 1700 UTC 07 June 2020
Winds: from the W (280 degrees) at 6 MPH (5 knots; 2.6 m/s)
Visibility: 6 or more miles 10+ km)
Ceiling: at least 12,000 feet AGL
Clouds: scattered clouds at 3000 feet AGL
Weather: no significant weather forecast for this period

 AIRPORT MAP


 RUNWAY INFORMATION
Runway 17L Runway length 4708 ft Runway width 148 ft
Runway elevation 0 ft Runway displaced threshold 0 ft Runway heading 0
Runway 35R Runway length 4708 ft Runway width 148 ft
Runway elevation 0 ft Runway displaced threshold 0 ft Runway heading 0
Runway 17R Runway length 6365 ft Runway width 148 ft
Runway elevation 0 ft Runway displaced threshold 0 ft Runway heading 0
Runway 35L Runway length 6365 ft Runway width 148 ft
Runway elevation 0 ft Runway displaced threshold 0 ft Runway heading 0

 AIRPORT FREQUENCIES
Type APP Name SAO PAULO Frequency 119.8 MHZ
Type ATIS Name ATIS Frequency 127.65 MHZ
Type CLD Name CLNC DEL Frequency 120.6 MHZ
Type GND Name GND Frequency 121.9 MHZ
Type TWR Name SAO PAULO Frequency 127.15 MHZ

 AIRPORT NEAR NAVIGATION AIDS
Type VOR-DME Name Congonhas Frequency 116900 KHZ
Type NDB Name Diadema Frequency 200 KHZ
Type NDB Name Mada Frequency 290 KHZ
Type NDB Name Metro Frequency 330 KHZ
Type NDB Name Sao Paulo Frequency 250 KHZ



Powered by Virtual Airlines Manager [v2.6.2]